Latest Weather Observations for Alva Beach

IDQ60801

Issued at 7:02 pm EST Thursday 11 February 2016 (issued every 30 minutes, with the page automatically refreshed every 10 minutes)

About weather observations | Map of weather stations | Latest weather observations for QLD | Other Formats
Station Details ID: 033295 Name: ALVA BEACH Lat: -19.46 Lon: 147.48 Height: 7.5 m
Data from the previous 72 hours. | See also: Recent months at Alva Beach
Date/Time
EST
Temp
°C
App
Temp
°C
Dew
Point
Rel
Hum
%
Delta-T
°C
Wind Press
QNH
hPa
Press
MSL
hPa
Rain
since 9 am
mm
Dir
 
Spd
km/h
Gust
km/h
Spd
kts
Gust
kts
11/07:00pm 28.2 28.6 20.7 63 5.0 E 19 28 10 15 1007.9 1007.9 0.0
11/06:30pm 28.6 29.5 21.6 66 4.7 E 19 30 10 16 1007.6 1007.6 0.0
11/06:00pm 28.7 29.0 20.4 60 5.5 E 19 24 10 13 1007.5 1007.5 0.0
11/05:30pm 28.9 29.8 20.9 62 5.3 E 17 24 9 13 1007.1 1007.1 0.0
11/05:00pm 29.1 30.1 21.1 62 5.3 E 17 26 9 14 1006.8 1006.8 0.0
11/04:30pm 28.9 29.1 20.1 59 5.8 E 19 26 10 14 1006.5 1006.5 0.0
11/04:00pm 29.1 28.7 19.4 55 6.3 E 20 28 11 15 1006.4 1006.4 0.0
11/03:30pm 30.4 29.9 20.0 53 6.8 E 22 32 12 17 1006.6 1006.6 0.0
11/03:00pm 30.4 30.2 19.7 52 7.0 ESE 20 30 11 16 1006.9 1006.9 0.0
11/02:30pm 30.8 30.6 19.8 52 7.2 ESE 20 32 11 17 1007.0 1007.0 0.0
11/02:00pm 30.6 30.9 18.7 49 7.7 ESE 15 24 8 13 1007.3 1007.3 0.0
11/01:30pm 31.5 31.2 19.2 48 8.0 ESE 19 32 10 17 1007.5 1007.5 0.0
11/01:00pm 31.5 31.8 20.8 53 7.2 ESE 20 33 11 18 1007.9 1007.9 0.0
11/12:30pm 30.4 30.8 20.9 57 6.3 ESE 20 32 11 17 1008.3 1008.3 0.0
11/12:00pm 32.0 32.6 20.3 50 7.8 ESE 17 30 9 16 1008.9 1008.9 0.0
11/11:30am 31.7 32.2 20.0 50 7.7 ESE 17 24 9 13 1009.0 1009.0 0.0
11/11:00am 31.3 32.2 20.9 54 7.0 ESE 17 24 9 13 1009.3 1009.3 0.0
11/10:30am 29.6 29.9 19.6 55 6.5 ESE 17 28 9 15 1009.4 1009.4 0.0
11/10:00am 29.3 29.6 19.6 56 6.3 SE 17 24 9 13 1009.5 1009.5 0.0
11/09:30am 29.8 31.0 19.8 55 6.6 SE 13 22 7 12 1009.5 1009.5 0.0
11/09:00am 29.3 30.6 20.2 58 6.0 SE 13 24 7 13 1009.5 1009.5 0.0
11/08:30am 28.6 30.0 19.5 58 5.9 SSE 11 20 6 11 1009.4 1009.4 0.0
11/08:00am 27.6 28.9 20.2 64 4.9 S 13 20 7 11 1009.2 1009.2 0.0
11/07:30am 26.2 27.7 19.8 68 4.2 S 11 19 6 10 1009.1 1009.1 0.0
11/07:00am 24.9 26.8 19.7 73 3.4 SSW 9 15 5 8 1008.8 1008.8 0.0
11/06:30am 23.8 25.7 19.7 78 2.6 SSW 9 15 5 8 1008.3 1008.3 0.0
11/06:00am 23.4 25.2 19.5 79 2.5 SSW 9 13 5 7 1007.9 1007.9 0.0
11/05:30am 23.8 25.7 19.7 78 2.6 SSW 9 11 5 6 1007.8 1007.8 0.0
11/05:00am 24.2 26.1 19.7 76 2.9 SW 9 11 5 6 1007.6 1007.6 0.0
11/04:30am 24.8 26.9 20.1 75 3.0 SSW 9 13 5 7 1007.1 1007.1 0.0
11/04:00am 25.3 27.5 19.7 71 3.6 SSW 7 11 4 6 1006.9 1006.9 0.0
11/03:30am 26.9 28.6 21.0 70 3.9 ESE 13 22 7 12 1006.9 1006.9 0.0
11/03:00am 27.0 28.6 20.8 69 4.1 ESE 13 24 7 13 1007.0 1007.0 0.0
11/02:30am 27.3 28.0 20.4 66 4.5 SE 17 26 9 14 1007.0 1007.0 0.0
11/02:00am 27.5 28.0 20.1 64 4.8 SE 17 30 9 16 1007.1 1007.1 0.0
11/01:30am 27.7 28.2 20.0 63 5.0 SE 17 30 9 16 1007.3 1007.3 0.0
11/01:00am 27.8 29.0 20.6 65 4.8 SE 15 30 8 16 1007.6 1007.6 0.0
11/12:30am 27.6 28.0 19.9 63 5.0 ESE 17 28 9 15 1008.0 1008.0 0.0
11/12:00am 27.5 28.3 20.6 66 4.6 ESE 17 22 9 12 1008.1 1008.1 0.0
 
Date/Time
EST
Temp
°C
App
Temp
°C
Dew
Point
Rel
Hum
%
Delta-T
°C
Wind Press
QNH
hPa
Press
MSL
hPa
Rain
since 9 am
mm
Dir
 
Spd
km/h
Gust
km/h
Spd
kts
Gust
kts
10/11:30pm 27.6 28.5 20.9 67 4.4 ESE 17 32 9 17 1008.2 1008.2 0.0
10/11:00pm 27.9 29.2 21.7 69 4.2 ESE 17 30 9 16 1008.6 1008.6 0.0
10/10:30pm 28.0 28.7 21.5 67 4.3 ESE 20 35 11 19 1008.8 1008.8 0.0
10/10:00pm 28.2 27.3 21.5 67 4.5 ESE 28 44 15 24 1008.8 1008.8 0.0
10/09:30pm 28.3 27.4 22.1 69 4.2 E 30 39 16 21 1008.7 1008.7 0.0
10/09:00pm 28.4 27.2 22.2 69 4.2 E 32 43 17 23 1008.4 1008.4 0.0
10/08:30pm 28.4 27.3 21.7 67 4.5 E 30 39 16 21 1008.3 1008.3 0.0
10/08:00pm 28.4 26.9 20.9 64 5.0 E 30 41 16 22 1008.0 1008.0 0.0
10/07:30pm 28.3 26.5 20.3 62 5.3 E 30 39 16 21 1007.8 1007.8 0.0
10/07:00pm 28.3 27.1 20.8 63 5.0 E 28 39 15 21 1007.4 1007.4 0.0
10/06:30pm 28.3 26.9 21.1 65 4.8 E 30 41 16 22 1007.0 1007.0 0.0
10/06:00pm 28.5 27.9 21.3 65 4.8 E 26 35 14 19 1006.6 1006.6 0.0
10/05:30pm 29.0 29.2 22.0 66 4.7 E 24 33 13 18 1006.3 1006.3 0.0
10/05:00pm 29.0 28.8 21.2 62 5.2 E 24 32 13 17 1006.2 1006.2 0.0
10/04:30pm 29.3 30.1 21.8 64 5.0 E 20 30 11 16 1006.1 1006.1 0.0
10/04:00pm 29.5 30.0 21.2 61 5.6 E 20 30 11 16 1006.0 1006.0 0.0
10/03:30pm 30.0 30.6 21.1 59 5.9 E 19 26 10 14 1006.1 1006.1 0.0
10/03:00pm 29.7 30.2 21.1 60 5.8 E 20 28 11 15 1006.3 1006.3 0.0
10/02:30pm 29.9 29.8 19.9 55 6.6 E 20 28 11 15 1006.8 1006.8 0.0
10/02:00pm 29.9 29.6 19.6 54 6.7 E 20 28 11 15 1007.2 1007.2 0.0
10/01:30pm 31.4 31.5 20.4 52 7.3 E 20 28 11 15 1007.5 1007.5 0.0
10/01:00pm 31.9 32.1 20.2 50 7.8 ESE 19 28 10 15 1007.9 1007.9 0.0
10/12:30pm 31.4 31.5 20.0 50 7.5 ESE 19 28 10 15 1008.3 1008.3 0.0
10/12:00pm 32.1 33.2 20.4 50 7.8 ESE 15 28 8 15 1008.8 1008.8 0.0
10/11:30am 31.5 32.2 20.4 51 7.4 ESE 17 30 9 16 1009.1 1009.1 0.0
10/11:00am 31.6 32.0 19.9 50 7.7 ESE 17 35 9 19 1009.2 1009.2 0.0
10/10:30am 31.2 32.1 20.8 54 6.9 ESE 17 30 9 16 1009.3 1009.3 0.0
10/10:00am 29.3 30.4 19.6 56 6.3 SE 13 24 7 13 1009.5 1009.5 0.0
10/09:30am 29.4 30.6 20.0 57 6.2 SE 13 24 7 13 1009.5 1009.5 0.0
10/09:00am 29.4 30.4 19.4 55 6.5 SE 13 20 7 11 1009.5 1009.5 0.0
10/08:30am 29.0 30.1 19.6 57 6.1 SE 13 20 7 11 1009.2 1009.2 0.0
10/08:00am 28.3 30.4 20.1 61 5.4 SSE 9 15 5 8 1008.9 1008.9 0.0
10/07:30am 26.7 28.8 20.1 67 4.3 S 9 17 5 9 1008.5 1008.5 0.0
10/07:00am 25.8 27.9 20.1 71 3.7 SSW 9 13 5 7 1008.3 1008.3 0.0
10/06:30am 25.0 27.0 20.0 74 3.2 S 9 13 5 7 1008.0 1008.0 0.0
10/06:00am 24.8 26.7 19.8 74 3.2 S 9 13 5 7 1007.7 1007.7 0.0
10/05:30am 24.9 26.9 19.9 74 3.2 S 9 13 5 7 1007.5 1007.5 0.0
10/05:00am 24.7 26.8 20.2 76 2.9 SSW 9 15 5 8 1007.3 1007.3 0.0
10/04:30am 24.7 27.2 20.2 76 2.9 SW 7 13 4 7 1007.3 1007.3 0.0
10/04:00am 24.7 27.1 20.0 75 3.0 SSW 7 13 4 7 1007.3 1007.3 0.0
10/03:30am 25.1 27.1 19.9 73 3.4 SSW 9 13 5 7 1006.9 1006.9 0.0
10/03:00am 25.5 28.2 20.3 73 3.4 SSW 6 13 3 7 1006.9 1006.9 0.0
10/02:30am 25.5 27.2 20.1 72 3.5 SSE 11 17 6 9 1007.1 1007.1 0.0
10/02:00am 25.5 27.7 20.3 73 3.4 SSE 9 15 5 8 1007.3 1007.3 0.0
10/01:30am 25.6 28.4 20.8 75 3.2 S 7 11 4 6 1007.8 1007.8 0.0
10/01:00am 26.7 27.6 20.8 70 3.9 SE 17 30 9 16 1008.1 1008.1 0.0
10/12:30am 27.4 26.7 21.0 68 4.2 ESE 26 39 14 21 1008.6 1008.6 0.0
10/12:00am 27.6 27.2 20.9 67 4.4 SE 24 43 13 23 1008.9 1008.9 0.0
 
Date/Time
EST
Temp
°C
App
Temp
°C
Dew
Point
Rel
Hum
%
Delta-T
°C
Wind Press
QNH
hPa
Press
MSL
hPa
Rain
since 9 am
mm
Dir
 
Spd
km/h
Gust
km/h
Spd
kts
Gust
kts
09/11:30pm 27.6 26.6 21.2 68 4.3 SE 28 41 15 22 1008.9 1008.9 0.0
09/11:00pm 27.9 27.5 21.7 69 4.2 SE 26 44 14 24 1009.2 1009.2 0.0
09/10:30pm 28.4 28.9 21.9 68 4.4 ESE 22 33 12 18 1009.2 1009.2 0.0
09/10:00pm 28.4 28.0 21.7 67 4.5 ESE 26 44 14 24 1009.2 1009.2 0.0
09/09:30pm 28.4 27.4 21.2 65 4.8 ESE 28 43 15 23 1009.1 1009.1 0.0
09/09:00pm 28.5 28.4 21.5 66 4.7 ESE 24 41 13 22 1008.8 1008.8 0.0
09/08:30pm 28.7 28.3 22.4 68 4.3 ESE 28 46 15 25 1008.7 1008.7 0.0
09/08:10pm 28.3 27.2 21.8 68 4.4 ESE 30 48 16 26 1008.6 1008.6 0.0
09/08:00pm 28.5 27.0 22.0 68 4.4 ESE 33 46 18 25 1008.6 1008.6 0.0
09/07:30pm 28.5 26.1 21.8 67 4.5 ESE 37 50 20 27 1008.2 1008.2 0.0
09/07:00pm 28.7 27.2 22.7 70 4.1 E 35 50 19 27 1007.8 1007.8 0.0
09/06:30pm 28.7 26.8 22.0 67 4.5 E 35 48 19 26 1007.7 1007.7 0.0
09/06:00pm 28.9 27.2 21.7 65 4.8 E 33 43 18 23 1007.5 1007.5 0.0
09/05:30pm 29.1 26.6 20.8 61 5.5 E 35 48 19 26 1007.2 1007.2 0.0
09/05:00pm 29.4 28.1 22.4 66 4.8 E 33 43 18 23 1006.9 1006.9 0.0
09/04:30pm 29.6 29.3 22.6 66 4.8 E 28 39 15 21 1006.6 1006.6 0.0
09/04:00pm 30.3 29.1 20.0 54 6.8 E 26 33 14 18 1006.7 1006.7 0.0
09/03:30pm 30.4 29.4 21.2 58 6.2 E 28 37 15 20 1006.8 1006.8 0.0
09/03:00pm 30.2 29.8 21.0 58 6.2 E 24 33 13 18 1007.0 1007.0 0.0
09/02:30pm 30.7 30.6 21.5 58 6.2 E 24 33 13 18 1007.3 1007.3 0.0
09/02:00pm 30.5 29.6 20.7 55 6.5 E 26 35 14 19 1007.6 1007.6 0.0
09/01:30pm 32.3 32.4 21.8 54 7.1 ESE 24 32 13 17 1007.9 1007.9 0.0
09/01:00pm 32.5 32.7 21.4 52 7.5 ESE 22 32 12 17 1008.4 1008.4 0.0
09/12:30pm 32.2 33.1 22.6 57 6.6 ESE 22 32 12 17 1008.8 1008.8 0.0
09/12:00pm 32.4 33.5 21.3 52 7.5 ESE 17 28 9 15 1009.2 1009.2 0.0
09/11:30am 32.1 32.5 20.7 51 7.6 ESE 19 30 10 16 1009.3 1009.3 0.0
09/11:00am 31.1 31.4 18.8 48 8.0 SE 15 28 8 15 1009.5 1009.5 0.0
09/10:30am 30.9 31.4 19.3 50 7.6 SE 15 24 8 13 1009.9 1009.9 0.0
09/10:00am 30.7 31.3 19.4 51 7.4 SE 15 32 8 17 1010.0 1010.0 0.0
09/09:30am 30.0 30.4 19.1 52 7.1 SE 15 28 8 15 1010.0 1010.0 0.0
09/09:00am 29.9 30.2 18.7 51 7.2 SE 15 28 8 15 1009.9 1009.9 0.0
09/08:30am 29.8 31.0 19.8 55 6.6 SE 13 30 7 16 1009.7 1009.7 0.0
09/08:00am 29.0 29.5 19.3 55 6.3 SSE 15 24 8 13 1009.8 1009.8 0.0
09/07:30am 28.3 29.7 19.5 59 5.7 SSE 11 22 6 12 1009.6 1009.6 0.0
09/07:00am 27.1 29.0 19.7 64 4.8 SSE 9 19 5 10 1009.6 1009.6 0.0
09/06:30am 26.7 28.9 20.3 68 4.2 S 9 13 5 7 1009.3 1009.3 0.0
09/06:00am 26.8 28.4 19.9 66 4.5 SSE 11 24 6 13 1008.9 1008.9 0.0
09/05:30am 27.4 26.2 20.0 64 4.8 SE 26 43 14 23 1008.6 1008.6 0.0
09/05:00am 27.4 26.9 20.0 64 4.8 SE 22 35 12 19 1008.3 1008.3 0.0
09/04:30am 27.2 27.8 21.0 69 4.1 SE 19 37 10 20 1007.9 1007.9 0.0
09/04:00am 27.0 27.8 21.7 73 3.5 SE 20 35 11 19 1007.6 1007.6 0.0
09/03:30am 27.0 30.0 22.0 74 3.4 SSE 9 20 5 11 1007.3 1007.3 0.0
09/03:00am 27.6 29.6 23.0 76 3.1 SE 17 32 9 17 1007.5 1007.5 0.0
09/02:30am 27.8 29.3 23.0 75 3.3 SE 20 30 11 16 1007.6 1007.6 0.0
09/02:00am 28.1 29.5 22.8 73 3.6 ESE 20 32 11 17 1007.6 1007.6 0.0
09/01:30am 28.2 29.5 22.7 72 3.7 SE 20 32 11 17 1008.0 1008.0 0.0
09/01:00am 28.1 29.1 22.1 70 4.0 SE 20 33 11 18 1008.4 1008.4 0.0
09/12:30am 28.2 29.3 22.4 71 3.9 SE 20 33 11 18 1008.7 1008.7 0.0
09/12:00am 28.4 29.8 22.9 72 3.8 ESE 20 32 11 17 1009.2 1009.2 0.0
 
Date/Time
EST
Temp
°C
App
Temp
°C
Dew
Point
Rel
Hum
%
Delta-T
°C
Wind Press
QNH
hPa
Press
MSL
hPa
Rain
since 9 am
mm
Dir
 
Spd
km/h
Gust
km/h
Spd
kts
Gust
kts
08/11:30pm 28.4 29.3 22.6 71 3.9 ESE 22 39 12 21 1009.5 1009.5 0.0
08/11:00pm 28.4 29.7 22.6 71 3.9 SE 20 35 11 19 1009.8 1009.8 0.0
08/10:30pm 28.2 29.6 22.9 73 3.6 SE 20 33 11 18 1009.9 1009.9 0.0
08/10:00pm 28.4 30.1 23.1 73 3.6 SE 19 33 10 18 1009.9 1009.9 0.0
08/09:30pm 28.5 30.5 23.9 76 3.2 SE 20 32 11 17 1009.4 1009.4 0.0
08/09:00pm 28.4 29.4 23.5 75 3.4 SE 24 39 13 21 1009.1 1009.1 0.0
08/08:30pm 28.7 29.8 23.6 74 3.5 SE 24 37 13 20 1008.8 1008.8 0.0
08/08:00pm 29.0 30.8 24.3 76 3.3 ESE 22 32 12 17 1008.4 1008.4 0.0
08/07:30pm 28.9 29.2 24.2 76 3.3 ESE 30 41 16 22 1007.9 1007.9 0.0

Other Formats:

Comma delimited format used in spreadsheet applications
http://www.bom.gov.au/fwo/IDQ60801/IDQ60801.95296.axf

JavaScript Object Notation format (JSON) in row-major order
http://www.bom.gov.au/fwo/IDQ60801/IDQ60801.95296.json